Time,TemperatureF,DewpointF,PressureIn,WindDirection,WindDirectionDegrees,WindSpeedMPH,WindSpeedGustMPH,Humidity,HourlyPrecipIn,Conditions,Clouds,dailyrainin,SoftwareType,DateUTC
2013-06-21 00:01:00,56.5,48.0,29.44,SSW,202,3.0,4.0,73,0.00,,,0.00,Rainwise IP-100,2013-06-21 04:01:00,
2013-06-21 00:06:00,57.8,48.0,29.44,SW,225,4.0,6.0,69,0.00,,,0.00,Rainwise IP-100,2013-06-21 04:06:00,
2013-06-21 00:08:00,57.8,48.0,29.44,SW,225,2.0,6.0,70,0.00,,,0.00,Rainwise IP-100,2013-06-21 04:08:00,
2013-06-21 00:09:00,58.0,49.0,29.43,SW,225,4.0,6.0,71,0.00,,,0.00,Rainwise IP-100,2013-06-21 04:09:00,
2013-06-21 00:14:00,57.7,50.0,29.44,SSW,202,3.0,6.0,75,0.00,,,0.00,Rainwise IP-100,2013-06-21 04:14:00,
2013-06-21 00:19:00,57.8,50.5,29.43,SW,225,5.0,6.0,76,0.00,,,0.00,Rainwise IP-100,2013-06-21 04:19:00,
2013-06-21 00:24:00,58.2,50.5,29.43,SW,225,2.0,6.0,76,0.00,,,0.00,Rainwise IP-100,2013-06-21 04:24:00,
2013-06-21 00:29:00,58.5,51.0,29.43,SSW,202,3.0,5.0,75,0.00,,,0.00,Rainwise IP-100,2013-06-21 04:29:00,
2013-06-21 00:31:00,58.4,50.5,29.43,SW,225,1.0,5.0,75,0.00,,,0.00,Rainwise IP-100,2013-06-21 04:31:00,
2013-06-21 00:32:00,58.4,50.0,29.43,SW,225,1.0,5.0,74,0.00,,,0.00,Rainwise IP-100,2013-06-21 04:32:00,
2013-06-21 00:37:00,58.3,50.0,29.43,West,270,1.0,2.0,74,0.00,,,0.00,Rainwise IP-100,2013-06-21 04:37:00,
2013-06-21 00:42:00,57.9,50.0,29.44,WSW,247,2.0,3.0,74,0.00,,,0.00,Rainwise IP-100,2013-06-21 04:42:00,
2013-06-21 00:47:00,57.8,49.0,29.44,SW,225,2.0,2.0,72,0.00,,,0.00,Rainwise IP-100,2013-06-21 04:47:00,
2013-06-21 00:52:00,58.6,50.0,29.43,SW,225,2.0,6.0,72,0.00,,,0.00,Rainwise IP-100,2013-06-21 04:52:00,
2013-06-21 00:57:00,58.6,50.5,29.43,SSW,202,3.0,5.0,73,0.00,,,0.00,Rainwise IP-100,2013-06-21 04:57:00,
2013-06-21 01:02:00,58.4,50.0,29.43,SSW,202,2.0,4.0,74,0.00,,,0.00,Rainwise IP-100,2013-06-21 05:02:00,
2013-06-21 01:07:00,57.9,50.0,29.44,SSW,202,4.0,5.0,74,0.00,,,0.00,Rainwise IP-100,2013-06-21 05:07:00,
2013-06-21 01:12:00,57.8,50.5,29.44,SSW,202,4.0,6.0,75,0.00,,,0.00,Rainwise IP-100,2013-06-21 05:12:00,
2013-06-21 01:17:00,57.9,50.5,29.44,SSW,202,2.0,6.0,75,0.00,,,0.00,Rainwise IP-100,2013-06-21 05:17:00,
2013-06-21 01:22:00,57.8,50.5,29.44,SW,225,3.0,6.0,75,0.00,,,0.00,Rainwise IP-100,2013-06-21 05:22:00,
2013-06-21 01:27:00,57.8,50.5,29.43,South,180,4.0,6.0,76,0.00,,,0.00,Rainwise IP-100,2013-06-21 05:27:00,
2013-06-21 01:32:00,57.7,50.5,29.43,South,180,2.0,5.0,77,0.00,,,0.00,Rainwise IP-100,2013-06-21 05:32:00,
2013-06-21 01:37:00,57.6,50.5,29.43,SW,225,2.0,4.0,78,0.00,,,0.00,Rainwise IP-100,2013-06-21 05:37:00,
2013-06-21 01:42:00,57.6,50.5,29.43,SW,225,2.0,5.0,77,0.00,,,0.00,Rainwise IP-100,2013-06-21 05:42:00,
2013-06-21 01:47:00,57.8,50.5,29.43,SW,225,1.0,6.0,75,0.00,,,0.00,Rainwise IP-100,2013-06-21 05:47:00,
2013-06-21 01:52:00,57.7,50.0,29.43,SSW,202,2.0,4.0,75,0.00,,,0.00,Rainwise IP-100,2013-06-21 05:52:00,
2013-06-21 01:57:00,57.7,50.0,29.43,SW,225,2.0,4.0,74,0.00,,,0.00,Rainwise IP-100,2013-06-21 05:57:00,
2013-06-21 02:02:00,57.7,50.0,29.43,SW,225,2.0,4.0,74,0.00,,,0.00,Rainwise IP-100,2013-06-21 06:02:00,
2013-06-21 02:07:00,57.5,50.0,29.43,SSW,202,2.0,4.0,74,0.00,,,0.00,Rainwise IP-100,2013-06-21 06:07:00,
2013-06-21 02:13:00,57.4,50.0,29.43,South,180,2.0,4.0,75,0.00,,,0.00,Rainwise IP-100,2013-06-21 06:13:00,
2013-06-21 02:18:00,57.3,50.0,29.43,SW,225,2.0,5.0,76,0.00,,,0.00,Rainwise IP-100,2013-06-21 06:18:00,
2013-06-21 02:23:00,57.5,50.0,29.43,South,180,4.0,4.0,75,0.00,,,0.00,Rainwise IP-100,2013-06-21 06:23:00,
2013-06-21 02:28:00,57.6,50.0,29.43,SW,225,2.0,4.0,75,0.00,,,0.00,Rainwise IP-100,2013-06-21 06:28:00,
2013-06-21 02:33:00,57.7,50.0,29.43,SSW,202,2.0,5.0,75,0.00,,,0.00,Rainwise IP-100,2013-06-21 06:33:00,
2013-06-21 02:38:00,57.8,50.5,29.43,South,180,3.0,6.0,75,0.00,,,0.00,Rainwise IP-100,2013-06-21 06:38:00,
2013-06-21 02:43:00,57.7,50.0,29.43,SSW,202,2.0,6.0,76,0.00,,,0.00,Rainwise IP-100,2013-06-21 06:43:00,
2013-06-21 02:48:00,57.5,50.5,29.43,SW,225,1.0,4.0,77,0.00,,,0.00,Rainwise IP-100,2013-06-21 06:48:00,
2013-06-21 02:53:00,57.3,50.5,29.43,SSE,157,1.0,4.0,78,0.00,,,0.00,Rainwise IP-100,2013-06-21 06:53:00,
2013-06-21 02:58:00,57.2,50.5,29.43,SSW,202,1.0,4.0,78,0.00,,,0.00,Rainwise IP-100,2013-06-21 06:58:00,
2013-06-21 03:03:00,57.1,50.5,29.43,SW,225,3.0,5.0,79,0.00,,,0.00,Rainwise IP-100,2013-06-21 07:03:00,
2013-06-21 03:08:00,57.0,50.5,29.43,SW,225,2.0,5.0,79,0.00,,,0.00,Rainwise IP-100,2013-06-21 07:08:00,
2013-06-21 03:13:00,57.1,51.0,29.43,SW,225,4.0,6.0,80,0.00,,,0.00,Rainwise IP-100,2013-06-21 07:13:00,
2013-06-21 03:18:00,57.0,51.0,29.43,South,180,2.0,6.0,81,0.00,,,0.00,Rainwise IP-100,2013-06-21 07:18:00,
2013-06-21 03:23:00,56.9,51.0,29.43,SW,225,3.0,6.0,81,0.00,,,0.00,Rainwise IP-100,2013-06-21 07:23:00,
2013-06-21 03:28:00,56.8,52.0,29.43,SSW,202,4.0,6.0,82,0.00,,,0.00,Rainwise IP-100,2013-06-21 07:28:00,
2013-06-21 03:33:00,56.7,51.0,29.43,SW,225,6.0,6.0,82,0.00,,,0.00,Rainwise IP-100,2013-06-21 07:33:00,
2013-06-21 03:38:00,56.6,51.0,29.43,South,180,4.0,6.0,83,0.00,,,0.00,Rainwise IP-100,2013-06-21 07:38:00,
2013-06-21 03:43:00,56.7,51.0,29.43,WSW,247,3.0,7.0,83,0.00,,,0.00,Rainwise IP-100,2013-06-21 07:43:00,
2013-06-21 03:48:00,56.6,52.0,29.43,SW,225,2.0,8.0,84,0.00,,,0.00,Rainwise IP-100,2013-06-21 07:48:00,
2013-06-21 03:53:00,56.6,52.0,29.42,South,180,2.0,6.0,84,0.00,,,0.00,Rainwise IP-100,2013-06-21 07:53:00,
2013-06-21 03:58:00,56.5,52.0,29.43,SW,225,6.0,6.0,84,0.00,,,0.00,Rainwise IP-100,2013-06-21 07:58:00,
2013-06-21 04:03:00,56.5,52.0,29.43,WSW,247,2.0,8.0,84,0.00,,,0.00,Rainwise IP-100,2013-06-21 08:03:00,
2013-06-21 04:08:00,56.4,52.0,29.43,SW,225,2.0,6.0,84,0.00,,,0.00,Rainwise IP-100,2013-06-21 08:08:00,
2013-06-21 04:13:00,56.3,52.0,29.43,South,180,2.0,6.0,85,0.00,,,0.00,Rainwise IP-100,2013-06-21 08:13:00,
2013-06-21 04:18:00,56.3,52.0,29.43,SSW,202,2.0,6.0,85,0.00,,,0.00,Rainwise IP-100,2013-06-21 08:18:00,
2013-06-21 04:23:00,56.4,52.0,29.43,South,180,3.0,6.0,85,0.00,,,0.00,Rainwise IP-100,2013-06-21 08:23:00,
2013-06-21 04:28:00,56.4,52.0,29.43,South,180,2.0,6.0,84,0.00,,,0.00,Rainwise IP-100,2013-06-21 08:28:00,
2013-06-21 04:33:00,56.6,52.0,29.43,South,180,1.0,5.0,84,0.00,,,0.00,Rainwise IP-100,2013-06-21 08:33:00,
2013-06-21 04:38:00,56.6,51.0,29.43,SW,225,4.0,6.0,83,0.00,,,0.00,Rainwise IP-100,2013-06-21 08:38:00,
2013-06-21 04:43:00,56.7,51.0,29.43,SSW,202,2.0,5.0,82,0.00,,,0.00,Rainwise IP-100,2013-06-21 08:43:00,
2013-06-21 04:48:00,56.7,50.5,29.43,WSW,247,2.0,8.0,81,0.00,,,0.00,Rainwise IP-100,2013-06-21 08:48:00,
2013-06-21 04:53:00,56.7,51.0,29.43,WSW,247,2.0,4.0,82,0.00,,,0.00,Rainwise IP-100,2013-06-21 08:53:00,
2013-06-21 04:58:00,56.5,51.0,29.43,WNW,292,0.0,4.0,82,0.00,,,0.00,Rainwise IP-100,2013-06-21 08:58:00,
2013-06-21 05:03:00,56.3,51.0,29.43,West,270,1.0,2.0,83,0.00,,,0.00,Rainwise IP-100,2013-06-21 09:03:00,
2013-06-21 05:08:00,56.0,50.5,29.43,WSW,247,2.0,2.0,83,0.00,,,0.00,Rainwise IP-100,2013-06-21 09:08:00,
2013-06-21 05:13:00,55.9,50.5,29.43,WSW,247,1.0,2.0,83,0.00,,,0.00,Rainwise IP-100,2013-06-21 09:13:00,
2013-06-21 05:18:00,55.9,50.5,29.43,WSW,247,2.0,2.0,83,0.00,,,0.00,Rainwise IP-100,2013-06-21 09:18:00,
2013-06-21 05:24:00,55.9,50.5,29.43,West,270,2.0,2.0,83,0.00,,,0.00,Rainwise IP-100,2013-06-21 09:24:00,
2013-06-21 05:29:00,55.8,50.5,29.43,WSW,247,2.0,4.0,83,0.00,,,0.00,Rainwise IP-100,2013-06-21 09:29:00,
2013-06-21 05:34:00,55.8,50.5,29.43,WSW,247,3.0,3.0,83,0.00,,,0.00,Rainwise IP-100,2013-06-21 09:34:00,
2013-06-21 05:39:00,55.6,50.5,29.43,North,360,1.0,3.0,83,0.00,,,0.00,Rainwise IP-100,2013-06-21 09:39:00,
2013-06-21 05:44:00,55.3,50.5,29.43,North,360,1.0,3.0,84,0.00,,,0.00,Rainwise IP-100,2013-06-21 09:44:00,
2013-06-21 05:49:00,55.0,50.5,29.43,North,360,1.0,2.0,85,0.00,,,0.00,Rainwise IP-100,2013-06-21 09:49:00,
2013-06-21 05:54:00,55.2,50.5,29.43,NNE,22,2.0,2.0,84,0.00,,,0.00,Rainwise IP-100,2013-06-21 09:54:00,
2013-06-21 05:59:00,55.3,50.5,29.43,NNE,22,2.0,2.0,83,0.00,,,0.00,Rainwise IP-100,2013-06-21 09:59:00,
2013-06-21 06:04:00,55.2,50.5,29.43,NNE,22,0.0,2.0,84,0.00,,,0.00,Rainwise IP-100,2013-06-21 10:04:00,
2013-06-21 06:09:00,55.3,50.5,29.43,SSE,157,2.0,2.0,85,0.00,,,0.00,Rainwise IP-100,2013-06-21 10:09:00,
2013-06-21 06:14:00,55.6,51.0,29.43,SSE,157,1.0,3.0,84,0.00,,,0.00,Rainwise IP-100,2013-06-21 10:14:00,
2013-06-21 06:19:00,55.7,51.0,29.43,SSE,157,0.0,2.0,84,0.00,,,0.00,Rainwise IP-100,2013-06-21 10:19:00,
2013-06-21 06:24:00,55.6,51.0,29.43,SSE,157,0.0,0.0,85,0.00,,,0.00,Rainwise IP-100,2013-06-21 10:24:00,
2013-06-21 06:29:00,55.6,51.0,29.43,SSE,157,1.0,2.0,85,0.00,,,0.00,Rainwise IP-100,2013-06-21 10:29:00,
2013-06-21 06:34:00,55.8,51.0,29.43,SSE,157,2.0,2.0,85,0.00,,,0.00,Rainwise IP-100,2013-06-21 10:34:00,
2013-06-21 06:39:00,55.9,51.0,29.44,SSE,157,0.0,2.0,84,0.00,,,0.00,Rainwise IP-100,2013-06-21 10:39:00,
2013-06-21 06:44:00,56.2,50.5,29.44,SSW,202,0.0,2.0,83,0.00,,,0.00,Rainwise IP-100,2013-06-21 10:44:00,
2013-06-21 06:49:00,56.6,51.0,29.44,SSE,157,1.0,1.0,83,0.00,,,0.00,Rainwise IP-100,2013-06-21 10:49:00,
2013-06-21 06:54:00,56.9,52.0,29.45,SSE,157,0.0,2.0,82,0.00,,,0.00,Rainwise IP-100,2013-06-21 10:54:00,
2013-06-21 06:59:00,57.4,52.0,29.45,South,180,1.0,2.0,81,0.00,,,0.00,Rainwise IP-100,2013-06-21 10:59:00,
2013-06-21 07:04:00,57.8,53.0,29.45,SSE,157,2.0,2.0,81,0.00,,,0.00,Rainwise IP-100,2013-06-21 11:04:00,
2013-06-21 07:09:00,58.4,52.0,29.45,SE,135,2.0,4.0,80,0.00,,,0.00,Rainwise IP-100,2013-06-21 11:09:00,
2013-06-21 07:14:00,59.1,52.0,29.45,SE,135,2.0,3.0,78,0.00,,,0.00,Rainwise IP-100,2013-06-21 11:14:00,
2013-06-21 07:19:00,59.8,53.0,29.45,SSE,157,4.0,4.0,77,0.00,,,0.00,Rainwise IP-100,2013-06-21 11:19:00,
2013-06-21 07:24:00,60.4,53.0,29.46,South,180,2.0,5.0,75,0.00,,,0.00,Rainwise IP-100,2013-06-21 11:24:00,
2013-06-21 07:29:00,61.1,53.0,29.46,SSE,157,2.0,3.0,74,0.00,,,0.00,Rainwise IP-100,2013-06-21 11:29:00,
2013-06-21 07:34:00,61.8,53.5,29.46,South,180,1.0,2.0,73,0.00,,,0.00,Rainwise IP-100,2013-06-21 11:34:00,
2013-06-21 07:39:00,62.4,53.5,29.47,South,180,2.0,2.0,72,0.00,,,0.00,Rainwise IP-100,2013-06-21 11:39:00,
2013-06-21 07:44:00,62.9,53.0,29.47,South,180,2.0,3.0,69,0.00,,,0.00,Rainwise IP-100,2013-06-21 11:44:00,
2013-06-21 07:49:00,63.6,53.5,29.47,SW,225,0.0,2.0,69,0.00,,,0.00,Rainwise IP-100,2013-06-21 11:49:00,
2013-06-21 07:54:00,64.1,53.0,29.48,SSE,157,1.0,2.0,66,0.00,,,0.00,Rainwise IP-100,2013-06-21 11:54:00,
2013-06-21 07:59:00,64.7,53.0,29.48,SSE,157,0.0,2.0,66,0.00,,,0.00,Rainwise IP-100,2013-06-21 11:59:00,
2013-06-21 08:04:00,65.5,53.5,29.48,SSE,157,2.0,2.0,65,0.00,,,0.00,Rainwise IP-100,2013-06-21 12:04:00,
2013-06-21 08:09:00,65.4,54.0,29.48,NNE,22,2.0,2.0,67,0.00,,,0.00,Rainwise IP-100,2013-06-21 12:09:00,
2013-06-21 08:14:00,65.9,54.5,29.49,ENE,67,0.0,4.0,67,0.00,,,0.00,Rainwise IP-100,2013-06-21 12:14:00,
2013-06-21 08:19:00,65.4,54.5,29.49,SE,135,2.0,2.0,68,0.00,,,0.00,Rainwise IP-100,2013-06-21 12:19:00,
2013-06-21 08:24:00,65.9,55.0,29.49,NW,315,0.0,2.0,69,0.00,,,0.00,Rainwise IP-100,2013-06-21 12:24:00,
2013-06-21 08:29:00,65.8,55.0,29.49,North,360,0.0,2.0,69,0.00,,,0.00,Rainwise IP-100,2013-06-21 12:29:00,
2013-06-21 08:34:00,65.9,54.0,29.49,SE,135,1.0,2.0,66,0.00,,,0.00,Rainwise IP-100,2013-06-21 12:34:00,
2013-06-21 08:39:00,66.3,54.5,29.49,SSE,157,2.0,3.0,66,0.00,,,0.00,Rainwise IP-100,2013-06-21 12:39:00,
2013-06-21 08:44:00,66.3,54.0,29.48,SE,135,1.0,4.0,65,0.00,,,0.00,Rainwise IP-100,2013-06-21 12:44:00,
2013-06-21 08:49:00,66.6,54.5,29.49,SSE,157,1.0,2.0,65,0.00,,,0.00,Rainwise IP-100,2013-06-21 12:49:00,
2013-06-21 08:54:00,67.1,54.0,29.49,ESE,112,1.0,2.0,62,0.00,,,0.00,Rainwise IP-100,2013-06-21 12:54:00,
2013-06-21 08:59:00,67.4,55.0,29.49,NNE,22,2.0,3.0,65,0.00,,,0.00,Rainwise IP-100,2013-06-21 12:59:00,
2013-06-21 09:04:00,68.1,54.5,29.49,SE,135,0.0,2.0,63,0.00,,,0.00,Rainwise IP-100,2013-06-21 13:04:00,
2013-06-21 09:09:00,68.8,56.0,29.49,NNE,22,0.0,4.0,63,0.00,,,0.00,Rainwise IP-100,2013-06-21 13:09:00,
2013-06-21 09:14:00,68.8,54.5,29.49,NE,45,0.0,2.0,61,0.00,,,0.00,Rainwise IP-100,2013-06-21 13:14:00,
2013-06-21 09:19:00,68.4,54.5,29.50,NE,45,2.0,3.0,61,0.00,,,0.00,Rainwise IP-100,2013-06-21 13:19:00,
2013-06-21 09:24:00,67.6,55.0,29.50,NE,45,3.0,5.0,64,0.00,,,0.00,Rainwise IP-100,2013-06-21 13:24:00,
2013-06-21 09:29:00,67.1,54.5,29.50,NNE,22,4.0,7.0,64,0.00,,,0.00,Rainwise IP-100,2013-06-21 13:29:00,
2013-06-21 09:34:00,67.6,56.0,29.50,North,360,3.0,5.0,66,0.00,,,0.00,Rainwise IP-100,2013-06-21 13:34:00,
2013-06-21 09:39:00,67.8,55.0,29.51,NNE,22,4.0,6.0,64,0.00,,,0.00,Rainwise IP-100,2013-06-21 13:39:00,
2013-06-21 09:44:00,68.9,57.5,29.51,ESE,112,1.0,4.0,67,0.00,,,0.00,Rainwise IP-100,2013-06-21 13:44:00,
2013-06-21 09:49:00,69.3,56.0,29.51,SE,135,2.0,2.0,62,0.00,,,0.00,Rainwise IP-100,2013-06-21 13:49:00,
2013-06-21 09:54:00,69.8,55.0,29.50,SE,135,2.0,2.0,60,0.00,,,0.00,Rainwise IP-100,2013-06-21 13:54:00,
2013-06-21 09:59:00,70.7,54.0,29.50,South,180,2.0,3.0,56,0.00,,,0.00,Rainwise IP-100,2013-06-21 13:59:00,
2013-06-21 10:04:00,70.4,56.5,29.50,East,90,2.0,3.0,61,0.00,,,0.00,Rainwise IP-100,2013-06-21 14:04:00,
2013-06-21 10:09:00,70.8,56.0,29.51,NNW,337,1.0,2.0,59,0.00,,,0.00,Rainwise IP-100,2013-06-21 14:09:00,
2013-06-21 10:14:00,71.8,56.0,29.51,SSE,157,1.0,2.0,58,0.00,,,0.00,Rainwise IP-100,2013-06-21 14:14:00,
2013-06-21 10:19:00,72.1,57.0,29.51,SE,135,1.0,3.0,59,0.00,,,0.00,Rainwise IP-100,2013-06-21 14:19:00,
2013-06-21 10:24:00,72.1,56.5,29.51,East,90,2.0,3.0,58,0.00,,,0.00,Rainwise IP-100,2013-06-21 14:24:00,
2013-06-21 10:29:00,72.3,57.5,29.51,SSE,157,1.0,4.0,60,0.00,,,0.00,Rainwise IP-100,2013-06-21 14:29:00,
2013-06-21 10:34:00,72.7,58.0,29.51,East,90,0.0,3.0,60,0.00,,,0.00,Rainwise IP-100,2013-06-21 14:34:00,
2013-06-21 10:39:00,73.5,58.0,29.51,North,360,1.0,3.0,58,0.00,,,0.00,Rainwise IP-100,2013-06-21 14:39:00,
2013-06-21 10:44:00,73.5,57.5,29.51,North,360,2.0,2.0,57,0.00,,,0.00,Rainwise IP-100,2013-06-21 14:44:00,
2013-06-21 10:49:00,73.2,56.5,29.51,NE,45,0.0,3.0,55,0.00,,,0.00,Rainwise IP-100,2013-06-21 14:49:00,
2013-06-21 10:54:00,73.8,59.0,29.50,NE,45,3.0,3.0,59,0.00,,,0.00,Rainwise IP-100,2013-06-21 14:54:00,
2013-06-21 10:59:00,74.2,58.0,29.51,NNE,22,2.0,3.0,57,0.00,,,0.00,Rainwise IP-100,2013-06-21 14:59:00,
2013-06-21 11:04:00,74.8,57.5,29.51,NNE,22,1.0,2.0,55,0.00,,,0.00,Rainwise IP-100,2013-06-21 15:04:00,
2013-06-21 11:09:00,74.8,58.0,29.51,SSE,157,0.0,2.0,56,0.00,,,0.00,Rainwise IP-100,2013-06-21 15:09:00,
2013-06-21 11:14:00,74.5,59.0,29.51,NNE,22,1.0,4.0,58,0.00,,,0.00,Rainwise IP-100,2013-06-21 15:14:00,
2013-06-21 11:19:00,75.3,59.0,29.51,NNE,22,1.0,4.0,56,0.00,,,0.00,Rainwise IP-100,2013-06-21 15:19:00,
2013-06-21 11:24:00,74.9,58.0,29.51,NE,45,3.0,6.0,56,0.00,,,0.00,Rainwise IP-100,2013-06-21 15:24:00,
2013-06-21 11:29:00,74.8,57.5,29.51,North,360,2.0,5.0,55,0.00,,,0.00,Rainwise IP-100,2013-06-21 15:29:00,
2013-06-21 11:34:00,75.5,59.0,29.51,North,360,4.0,4.0,56,0.00,,,0.00,Rainwise IP-100,2013-06-21 15:34:00,
2013-06-21 11:39:00,75.7,59.0,29.51,NNW,337,4.0,5.0,56,0.00,,,0.00,Rainwise IP-100,2013-06-21 15:39:00,
2013-06-21 11:44:00,75.6,56.5,29.51,North,360,2.0,6.0,52,0.00,,,0.00,Rainwise IP-100,2013-06-21 15:44:00,
2013-06-21 11:49:00,76.0,57.0,29.50,North,360,0.0,2.0,52,0.00,,,0.00,Rainwise IP-100,2013-06-21 15:49:00,
2013-06-21 11:54:00,76.4,56.5,29.50,NE,45,1.0,4.0,50,0.00,,,0.00,Rainwise IP-100,2013-06-21 15:54:00,
2013-06-21 11:59:00,76.5,57.0,29.50,North,360,3.0,6.0,51,0.00,,,0.00,Rainwise IP-100,2013-06-21 15:59:00,
2013-06-21 12:04:00,77.0,54.0,29.50,NE,45,5.0,6.0,45,0.00,,,0.00,Rainwise IP-100,2013-06-21 16:04:00,
2013-06-21 12:09:00,75.9,52.0,29.50,North,360,3.0,6.0,43,0.00,,,0.00,Rainwise IP-100,2013-06-21 16:09:00,
2013-06-21 12:14:00,75.5,52.0,29.50,NNE,22,5.0,8.0,44,0.00,,,0.00,Rainwise IP-100,2013-06-21 16:14:00,
2013-06-21 12:19:00,75.8,53.5,29.50,NNE,22,4.0,7.0,45,0.00,,,0.00,Rainwise IP-100,2013-06-21 16:19:00,
2013-06-21 12:24:00,75.9,52.0,29.50,North,360,3.0,6.0,43,0.00,,,0.00,Rainwise IP-100,2013-06-21 16:24:00,
2013-06-21 12:29:00,76.7,55.0,29.49,North,360,4.0,7.0,47,0.00,,,0.00,Rainwise IP-100,2013-06-21 16:29:00,
2013-06-21 12:34:00,77.3,58.0,29.49,NE,45,2.0,5.0,52,0.00,,,0.00,Rainwise IP-100,2013-06-21 16:34:00,
2013-06-21 12:39:00,77.3,57.5,29.49,North,360,4.0,6.0,51,0.00,,,0.00,Rainwise IP-100,2013-06-21 16:39:00,
2013-06-21 12:44:00,77.3,57.5,29.50,North,360,5.0,7.0,50,0.00,,,0.00,Rainwise IP-100,2013-06-21 16:44:00,
2013-06-21 12:49:00,77.2,57.5,29.50,North,360,3.0,7.0,50,0.00,,,0.00,Rainwise IP-100,2013-06-21 16:49:00,
2013-06-21 12:54:00,77.1,59.5,29.50,North,360,2.0,7.0,54,0.00,,,0.00,Rainwise IP-100,2013-06-21 16:54:00,
2013-06-21 12:59:00,77.2,54.5,29.49,NE,45,0.0,3.0,45,0.00,,,0.00,Rainwise IP-100,2013-06-21 16:59:00,
2013-06-21 13:04:00,77.2,53.5,29.49,NNE,22,7.0,7.0,43,0.00,,,0.00,Rainwise IP-100,2013-06-21 17:04:00,
2013-06-21 13:09:00,77.5,56.5,29.49,NNE,22,6.0,7.0,48,0.00,,,0.00,Rainwise IP-100,2013-06-21 17:09:00,
2013-06-21 13:14:00,77.9,53.0,29.49,NNW,337,4.0,7.0,41,0.00,,,0.00,Rainwise IP-100,2013-06-21 17:14:00,
2013-06-21 13:19:00,78.6,53.5,29.49,North,360,3.0,6.0,41,0.00,,,0.00,Rainwise IP-100,2013-06-21 17:19:00,
2013-06-21 13:24:00,78.7,53.5,29.49,North,360,4.0,6.0,41,0.00,,,0.00,Rainwise IP-100,2013-06-21 17:24:00,
2013-06-21 13:29:00,78.3,56.5,29.49,NNE,22,4.0,7.0,47,0.00,,,0.00,Rainwise IP-100,2013-06-21 17:29:00,
2013-06-21 13:34:00,78.1,53.5,29.49,NNE,22,4.0,7.0,42,0.00,,,0.00,Rainwise IP-100,2013-06-21 17:34:00,
2013-06-21 13:39:00,78.4,54.0,29.48,North,360,5.0,6.0,43,0.00,,,0.00,Rainwise IP-100,2013-06-21 17:39:00,
2013-06-21 13:44:00,78.1,56.5,29.48,North,360,2.0,7.0,47,0.00,,,0.00,Rainwise IP-100,2013-06-21 17:44:00,
2013-06-21 13:46:00,78.5,52.0,29.48,NNE,22,4.0,7.0,39,0.00,,,0.00,Rainwise IP-100,2013-06-21 17:46:00,
2013-06-21 13:51:00,78.6,56.0,29.48,North,360,4.0,7.0,45,0.00,,,0.00,Rainwise IP-100,2013-06-21 17:51:00,
2013-06-21 13:54:00,78.7,59.0,29.48,North,360,5.0,7.0,50,0.00,,,0.00,Rainwise IP-100,2013-06-21 17:54:00,
2013-06-21 13:56:00,78.1,53.5,29.48,NNE,22,1.0,9.0,42,0.00,,,0.00,Rainwise IP-100,2013-06-21 17:56:00,
2013-06-21 14:01:00,77.6,50.0,29.49,NE,45,4.0,7.0,38,0.00,,,0.00,Rainwise IP-100,2013-06-21 18:01:00,
2013-06-21 14:06:00,78.5,55.0,29.48,NE,45,4.0,6.0,44,0.00,,,0.00,Rainwise IP-100,2013-06-21 18:06:00,
2013-06-21 14:11:00,78.8,57.0,29.48,North,360,4.0,7.0,47,0.00,,,0.00,Rainwise IP-100,2013-06-21 18:11:00,
2013-06-21 14:16:00,79.5,57.0,29.48,North,360,6.0,7.0,46,0.00,,,0.00,Rainwise IP-100,2013-06-21 18:16:00,
2013-06-21 14:21:00,79.5,57.0,29.48,North,360,5.0,7.0,46,0.00,,,0.00,Rainwise IP-100,2013-06-21 18:21:00,
2013-06-21 14:23:00,79.3,57.0,29.48,North,360,4.0,6.0,47,0.00,,,0.00,Rainwise IP-100,2013-06-21 18:23:00,
2013-06-21 14:28:00,79.6,56.0,29.48,North,360,4.0,6.0,44,0.00,,,0.00,Rainwise IP-100,2013-06-21 18:28:00,
2013-06-21 14:33:00,79.6,60.0,29.48,NE,45,3.0,6.0,51,0.00,,,0.00,Rainwise IP-100,2013-06-21 18:33:00,
2013-06-21 14:38:00,79.8,54.5,29.48,North,360,6.0,6.0,42,0.00,,,0.00,Rainwise IP-100,2013-06-21 18:38:00,
2013-06-21 14:43:00,79.3,54.0,29.48,North,360,4.0,6.0,42,0.00,,,0.00,Rainwise IP-100,2013-06-21 18:43:00,
2013-06-21 14:45:00,79.8,54.5,29.47,North,360,6.0,6.0,42,0.00,,,0.00,Rainwise IP-100,2013-06-21 18:45:00,
2013-06-21 14:47:00,79.5,54.0,29.47,North,360,2.0,6.0,41,0.00,,,0.00,Rainwise IP-100,2013-06-21 18:47:00,
2013-06-21 14:52:00,79.7,54.0,29.47,North,360,3.0,6.0,41,0.00,,,0.00,Rainwise IP-100,2013-06-21 18:52:00,
2013-06-21 14:57:00,79.5,55.0,29.47,North,360,5.0,6.0,43,0.00,,,0.00,Rainwise IP-100,2013-06-21 18:57:00,
2013-06-21 15:02:00,79.6,57.5,29.47,North,360,4.0,6.0,47,0.00,,,0.00,Rainwise IP-100,2013-06-21 19:02:00,
2013-06-21 15:07:00,79.5,54.0,29.47,NNE,22,1.0,6.0,41,0.00,,,0.00,Rainwise IP-100,2013-06-21 19:07:00,
2013-06-21 15:11:00,79.9,54.5,29.47,North,360,6.0,6.0,42,0.00,,,0.00,Rainwise IP-100,2013-06-21 19:11:00,
2013-06-21 15:16:00,79.6,58.0,29.47,NE,45,4.0,7.0,48,0.00,,,0.00,Rainwise IP-100,2013-06-21 19:16:00,
2013-06-21 15:17:00,79.5,54.0,29.47,North,360,5.0,7.0,41,0.00,,,0.00,Rainwise IP-100,2013-06-21 19:17:00,
2013-06-21 15:22:00,78.9,53.5,29.47,NE,45,1.0,6.0,41,0.00,,,0.00,Rainwise IP-100,2013-06-21 19:22:00,
2013-06-21 15:27:00,80.1,56.0,29.47,NE,45,3.0,6.0,44,0.00,,,0.00,Rainwise IP-100,2013-06-21 19:27:00,
2013-06-21 15:32:00,80.8,54.5,29.47,NNE,22,1.0,5.0,41,0.00,,,0.00,Rainwise IP-100,2013-06-21 19:32:00,
2013-06-21 15:37:00,81.1,56.5,29.47,North,360,3.0,6.0,43,0.00,,,0.00,Rainwise IP-100,2013-06-21 19:37:00,
2013-06-21 15:42:00,81.5,57.5,29.47,NE,45,1.0,5.0,44,0.00,,,0.00,Rainwise IP-100,2013-06-21 19:42:00,
2013-06-21 15:47:00,81.7,57.5,29.47,SE,135,0.0,5.0,44,0.00,,,0.00,Rainwise IP-100,2013-06-21 19:47:00,
2013-06-21 15:52:00,81.7,55.0,29.47,NNE,22,2.0,5.0,40,0.00,,,0.00,Rainwise IP-100,2013-06-21 19:52:00,
2013-06-21 15:57:00,81.9,54.5,29.47,NNE,22,1.0,6.0,39,0.00,,,0.00,Rainwise IP-100,2013-06-21 19:57:00,
2013-06-21 16:02:00,82.2,54.5,29.47,SE,135,2.0,5.0,39,0.00,,,0.00,Rainwise IP-100,2013-06-21 20:02:00,
2013-06-21 16:07:00,82.2,54.5,29.47,North,360,0.0,4.0,39,0.00,,,0.00,Rainwise IP-100,2013-06-21 20:07:00,
2013-06-21 16:12:00,83.0,59.0,29.47,ESE,112,2.0,2.0,44,0.00,,,0.00,Rainwise IP-100,2013-06-21 20:12:00,
2013-06-21 16:17:00,83.2,56.0,29.47,NE,45,2.0,2.0,39,0.00,,,0.00,Rainwise IP-100,2013-06-21 20:17:00,
2013-06-21 16:22:00,83.3,57.0,29.47,East,90,0.0,2.0,41,0.00,,,0.00,Rainwise IP-100,2013-06-21 20:22:00,
2013-06-21 16:27:00,83.7,56.5,29.47,East,90,0.0,3.0,39,0.00,,,0.00,Rainwise IP-100,2013-06-21 20:27:00,
2013-06-21 16:32:00,83.5,56.5,29.47,North,360,4.0,5.0,40,0.00,,,0.00,Rainwise IP-100,2013-06-21 20:32:00,
2013-06-21 16:37:00,83.3,55.0,29.47,NNE,22,2.0,5.0,38,0.00,,,0.00,Rainwise IP-100,2013-06-21 20:37:00,
2013-06-21 16:42:00,83.3,56.0,29.47,NNE,22,4.0,6.0,39,0.00,,,0.00,Rainwise IP-100,2013-06-21 20:42:00,
2013-06-21 16:47:00,82.7,54.0,29.47,North,360,4.0,4.0,37,0.00,,,0.00,Rainwise IP-100,2013-06-21 20:47:00,
2013-06-21 16:52:00,83.4,56.0,29.47,North,360,4.0,5.0,39,0.00,,,0.00,Rainwise IP-100,2013-06-21 20:52:00,
2013-06-21 16:57:00,82.2,55.0,29.46,NNE,22,4.0,4.0,40,0.00,,,0.00,Rainwise IP-100,2013-06-21 20:57:00,
2013-06-21 17:02:00,82.5,56.5,29.46,North,360,0.0,4.0,41,0.00,,,0.00,Rainwise IP-100,2013-06-21 21:02:00,
2013-06-21 17:07:00,82.8,55.0,29.46,North,360,2.0,4.0,39,0.00,,,0.00,Rainwise IP-100,2013-06-21 21:07:00,
2013-06-21 17:12:00,82.5,55.0,29.46,North,360,2.0,6.0,39,0.00,,,0.00,Rainwise IP-100,2013-06-21 21:12:00,
2013-06-21 17:17:00,81.3,54.0,29.45,NNE,22,4.0,5.0,39,0.00,,,0.00,Rainwise IP-100,2013-06-21 21:17:00,
2013-06-21 17:22:00,81.2,56.5,29.45,NNE,22,4.0,6.0,43,0.00,,,0.00,Rainwise IP-100,2013-06-21 21:22:00,
2013-06-21 17:28:00,80.7,59.5,29.45,North,360,2.0,6.0,48,0.00,,,0.00,Rainwise IP-100,2013-06-21 21:28:00,
2013-06-21 17:33:00,81.3,55.0,29.45,North,360,3.0,4.0,41,0.00,,,0.00,Rainwise IP-100,2013-06-21 21:33:00,
2013-06-21 17:38:00,81.6,57.5,29.45,NNW,337,2.0,4.0,44,0.00,,,0.00,Rainwise IP-100,2013-06-21 21:38:00,
2013-06-21 17:43:00,81.8,56.5,29.45,North,360,2.0,4.0,42,0.00,,,0.00,Rainwise IP-100,2013-06-21 21:43:00,
2013-06-21 17:48:00,81.0,57.0,29.45,North,360,2.0,4.0,44,0.00,,,0.00,Rainwise IP-100,2013-06-21 21:48:00,
2013-06-21 17:53:00,80.2,57.0,29.45,NE,45,3.0,6.0,45,0.00,,,0.00,Rainwise IP-100,2013-06-21 21:53:00,
2013-06-21 17:58:00,79.9,58.0,29.45,North,360,2.0,5.0,48,0.00,,,0.00,Rainwise IP-100,2013-06-21 21:58:00,
2013-06-21 18:03:00,79.7,56.5,29.44,NE,45,2.0,4.0,45,0.00,,,0.00,Rainwise IP-100,2013-06-21 22:03:00,
2013-06-21 18:08:00,79.9,56.0,29.44,North,360,2.0,4.0,44,0.00,,,0.00,Rainwise IP-100,2013-06-21 22:08:00,
2013-06-21 18:13:00,79.3,56.5,29.44,NE,45,2.0,3.0,46,0.00,,,0.00,Rainwise IP-100,2013-06-21 22:13:00,
2013-06-21 18:18:00,79.4,56.5,29.44,North,360,2.0,4.0,46,0.00,,,0.00,Rainwise IP-100,2013-06-21 22:18:00,
2013-06-21 18:23:00,79.2,59.5,29.44,North,360,2.0,4.0,50,0.00,,,0.00,Rainwise IP-100,2013-06-21 22:23:00,
2013-06-21 18:28:00,79.5,60.0,29.44,North,360,2.0,4.0,51,0.00,,,0.00,Rainwise IP-100,2013-06-21 22:28:00,
2013-06-21 18:33:00,79.5,57.0,29.43,North,360,2.0,4.0,46,0.00,,,0.00,Rainwise IP-100,2013-06-21 22:33:00,
2013-06-21 18:38:00,79.3,58.0,29.43,North,360,3.0,5.0,49,0.00,,,0.00,Rainwise IP-100,2013-06-21 22:38:00,
2013-06-21 18:43:00,78.9,60.5,29.43,NNE,22,2.0,4.0,53,0.00,,,0.00,Rainwise IP-100,2013-06-21 22:43:00,
2013-06-21 18:48:00,79.1,59.5,29.43,North,360,2.0,4.0,51,0.00,,,0.00,Rainwise IP-100,2013-06-21 22:48:00,
2013-06-21 18:53:00,79.1,59.0,29.43,North,360,4.0,5.0,50,0.00,,,0.00,Rainwise IP-100,2013-06-21 22:53:00,
2013-06-21 18:56:00,78.9,59.0,29.43,North,360,2.0,4.0,50,0.00,,,0.00,Rainwise IP-100,2013-06-21 22:56:00,
2013-06-21 19:01:00,78.6,59.0,29.43,North,360,2.0,3.0,50,0.00,,,0.00,Rainwise IP-100,2013-06-21 23:01:00,
2013-06-21 19:06:00,78.5,59.0,29.43,North,360,1.0,2.0,51,0.00,,,0.00,Rainwise IP-100,2013-06-21 23:06:00,
2013-06-21 19:11:00,78.5,59.0,29.43,North,360,2.0,2.0,51,0.00,,,0.00,Rainwise IP-100,2013-06-21 23:11:00,
2013-06-21 19:16:00,78.8,60.0,29.43,North,360,1.0,2.0,53,0.00,,,0.00,Rainwise IP-100,2013-06-21 23:16:00,
2013-06-21 19:21:00,79.1,60.0,29.43,North,360,1.0,2.0,52,0.00,,,0.00,Rainwise IP-100,2013-06-21 23:21:00,
2013-06-21 19:26:00,79.2,60.0,29.43,North,360,1.0,2.0,51,0.00,,,0.00,Rainwise IP-100,2013-06-21 23:26:00,
2013-06-21 19:31:00,78.9,60.0,29.43,North,360,1.0,2.0,52,0.00,,,0.00,Rainwise IP-100,2013-06-21 23:31:00,
2013-06-21 19:36:00,78.7,60.0,29.43,North,360,1.0,2.0,53,0.00,,,0.00,Rainwise IP-100,2013-06-21 23:36:00,
2013-06-21 19:41:00,78.1,60.0,29.43,North,360,1.0,2.0,54,0.00,,,0.00,Rainwise IP-100,2013-06-21 23:41:00,
2013-06-21 19:46:00,77.5,60.5,29.43,North,360,0.0,2.0,55,0.00,,,0.00,Rainwise IP-100,2013-06-21 23:46:00,
2013-06-21 19:51:00,76.9,60.0,29.43,NW,315,2.0,2.0,55,0.00,,,0.00,Rainwise IP-100,2013-06-21 23:51:00,
2013-06-21 19:56:00,76.7,60.0,29.43,NW,315,2.0,2.0,56,0.00,,,0.00,Rainwise IP-100,2013-06-21 23:56:00,
2013-06-21 20:01:00,76.8,59.5,29.43,NW,315,2.0,2.0,55,0.00,,,0.00,Rainwise IP-100,2013-06-22 00:01:00,
2013-06-21 20:06:00,76.5,59.5,29.43,NW,315,1.0,2.0,55,0.00,,,0.00,Rainwise IP-100,2013-06-22 00:06:00,
2013-06-21 20:11:00,75.9,59.0,29.43,NW,315,2.0,2.0,55,0.00,,,0.00,Rainwise IP-100,2013-06-22 00:11:00,
2013-06-21 20:16:00,75.5,59.0,29.43,NW,315,2.0,2.0,56,0.00,,,0.00,Rainwise IP-100,2013-06-22 00:16:00,
2013-06-21 20:21:00,75.1,59.0,29.42,NW,315,1.0,2.0,57,0.00,,,0.00,Rainwise IP-100,2013-06-22 00:21:00,
2013-06-21 20:26:00,74.7,59.0,29.42,NW,315,0.0,2.0,57,0.00,,,0.00,Rainwise IP-100,2013-06-22 00:26:00,
2013-06-21 20:31:00,74.1,59.0,29.41,NW,315,0.0,0.0,59,0.00,,,0.00,Rainwise IP-100,2013-06-22 00:31:00,
2013-06-21 20:36:00,73.5,59.0,29.41,NW,315,0.0,0.0,60,0.00,,,0.00,Rainwise IP-100,2013-06-22 00:36:00,
2013-06-21 20:41:00,72.8,58.0,29.41,NW,315,0.0,0.0,60,0.00,,,0.00,Rainwise IP-100,2013-06-22 00:41:00,
2013-06-21 20:46:00,72.5,58.0,29.40,NW,315,1.0,2.0,61,0.00,,,0.00,Rainwise IP-100,2013-06-22 00:46:00,
2013-06-21 20:51:00,72.2,59.0,29.40,WNW,292,0.0,2.0,62,0.00,,,0.00,Rainwise IP-100,2013-06-22 00:51:00,
2013-06-21 20:56:00,71.7,58.0,29.41,WNW,292,0.0,2.0,63,0.00,,,0.00,Rainwise IP-100,2013-06-22 00:56:00,
2013-06-21 21:01:00,71.1,58.0,29.40,WNW,292,1.0,2.0,65,0.00,,,0.00,Rainwise IP-100,2013-06-22 01:01:00,
2013-06-21 21:06:00,70.7,59.0,29.40,WNW,292,1.0,2.0,66,0.00,,,0.00,Rainwise IP-100,2013-06-22 01:06:00,
2013-06-21 21:11:00,70.8,58.0,29.40,NW,315,1.0,2.0,65,0.00,,,0.00,Rainwise IP-100,2013-06-22 01:11:00,
2013-06-21 21:16:00,70.9,58.0,29.40,NW,315,2.0,2.0,64,0.00,,,0.00,Rainwise IP-100,2013-06-22 01:16:00,
2013-06-21 21:21:00,70.7,57.5,29.41,NW,315,1.0,2.0,64,0.00,,,0.00,Rainwise IP-100,2013-06-22 01:21:00,
2013-06-21 21:26:00,70.9,57.5,29.41,NW,315,1.0,4.0,63,0.00,,,0.00,Rainwise IP-100,2013-06-22 01:26:00,
2013-06-21 21:31:00,71.0,58.0,29.41,NW,315,2.0,3.0,64,0.00,,,0.00,Rainwise IP-100,2013-06-22 01:31:00,
2013-06-21 21:36:00,71.0,57.5,29.41,WNW,292,2.0,2.0,63,0.00,,,0.00,Rainwise IP-100,2013-06-22 01:36:00,
2013-06-21 21:41:00,70.5,59.0,29.41,NW,315,1.0,2.0,67,0.00,,,0.00,Rainwise IP-100,2013-06-22 01:41:00,
2013-06-21 21:46:00,70.1,59.0,29.41,WNW,292,2.0,3.0,67,0.00,,,0.00,Rainwise IP-100,2013-06-22 01:46:00,
2013-06-21 21:51:00,69.8,59.0,29.41,WNW,292,2.0,2.0,68,0.00,,,0.00,Rainwise IP-100,2013-06-22 01:51:00,
2013-06-21 21:56:00,69.6,59.0,29.41,West,270,0.0,2.0,69,0.00,,,0.00,Rainwise IP-100,2013-06-22 01:56:00,
2013-06-21 22:01:00,69.1,59.0,29.41,West,270,2.0,2.0,70,0.00,,,0.00,Rainwise IP-100,2013-06-22 02:01:00,
2013-06-21 22:06:00,68.9,59.0,29.41,West,270,2.0,2.0,70,0.00,,,0.00,Rainwise IP-100,2013-06-22 02:06:00,
2013-06-21 22:11:00,69.2,59.0,29.41,WNW,292,1.0,2.0,70,0.00,,,0.00,Rainwise IP-100,2013-06-22 02:11:00,
2013-06-21 22:16:00,68.8,59.5,29.41,West,270,1.0,2.0,72,0.00,,,0.00,Rainwise IP-100,2013-06-22 02:16:00,
2013-06-21 22:21:00,68.4,59.5,29.41,West,270,2.0,2.0,73,0.00,,,0.00,Rainwise IP-100,2013-06-22 02:21:00,
2013-06-21 22:26:00,68.2,59.0,29.40,WSW,247,1.0,2.0,73,0.00,,,0.00,Rainwise IP-100,2013-06-22 02:26:00,
2013-06-21 22:31:00,68.3,59.5,29.40,WSW,247,2.0,2.0,73,0.00,,,0.00,Rainwise IP-100,2013-06-22 02:31:00,
2013-06-21 22:36:00,68.4,59.0,29.40,West,270,2.0,2.0,72,0.00,,,0.00,Rainwise IP-100,2013-06-22 02:36:00,
2013-06-21 22:41:00,68.7,59.0,29.40,West,270,2.0,2.0,71,0.00,,,0.00,Rainwise IP-100,2013-06-22 02:41:00,
2013-06-21 22:46:00,68.5,59.0,29.40,West,270,2.0,2.0,72,0.00,,,0.00,Rainwise IP-100,2013-06-22 02:46:00,
2013-06-21 22:51:00,68.1,59.0,29.40,West,270,2.0,2.0,73,0.00,,,0.00,Rainwise IP-100,2013-06-22 02:51:00,
2013-06-21 22:56:00,68.3,59.0,29.40,West,270,2.0,2.0,72,0.00,,,0.00,Rainwise IP-100,2013-06-22 02:56:00,
2013-06-21 23:01:00,68.1,59.5,29.40,SSE,157,0.0,2.0,74,0.00,,,0.00,Rainwise IP-100,2013-06-22 03:01:00,
2013-06-21 23:06:00,67.9,59.5,29.40,SSE,157,1.0,2.0,74,0.00,,,0.00,Rainwise IP-100,2013-06-22 03:06:00,
2013-06-21 23:11:00,67.9,60.0,29.40,SSE,157,1.0,2.0,76,0.00,,,0.00,Rainwise IP-100,2013-06-22 03:11:00,
2013-06-21 23:16:00,67.1,60.5,29.40,South,180,1.0,2.0,79,0.00,,,0.00,Rainwise IP-100,2013-06-22 03:16:00,
2013-06-21 23:21:00,66.6,60.5,29.40,SSW,202,0.0,2.0,80,0.00,,,0.00,Rainwise IP-100,2013-06-22 03:21:00,
2013-06-21 23:26:00,66.4,60.0,29.40,SSW,202,1.0,2.0,80,0.00,,,0.00,Rainwise IP-100,2013-06-22 03:26:00,
2013-06-21 23:31:00,66.4,60.0,29.39,SW,225,1.0,2.0,80,0.00,,,0.00,Rainwise IP-100,2013-06-22 03:31:00,
2013-06-21 23:36:00,66.8,60.0,29.39,SW,225,1.0,2.0,79,0.00,,,0.00,Rainwise IP-100,2013-06-22 03:36:00,
2013-06-21 23:41:00,66.9,60.0,29.39,SW,225,3.0,5.0,78,0.00,,,0.00,Rainwise IP-100,2013-06-22 03:41:00,
2013-06-21 23:46:00,66.9,60.5,29.40,SSW,202,3.0,4.0,79,0.00,,,0.00,Rainwise IP-100,2013-06-22 03:46:00,
2013-06-21 23:51:00,66.8,60.0,29.40,SW,225,4.0,6.0,79,0.00,,,0.00,Rainwise IP-100,2013-06-22 03:51:00,
2013-06-21 23:56:00,66.7,60.5,29.40,SW,225,4.0,6.0,80,0.00,,,0.00,Rainwise IP-100,2013-06-22 03:56:00,